Time;durP1;ratioP1;P1;durP2;ratioP2;P2;SDS_P1;SDS_P2;PMS_P1;PMS_P2;Temp;Humidity;BMP_temperature;BMP_pressure;BME280_temperature;BME280_humidity;BME280_pressure;Samples;Min_cycle;Max_cycle;Signal;HPM_P1;HPM_P2
2023/04/06 00:00:48;;;;;;;9.50;5.35;;;;;;;;;;5013762;28;20624;-58
2023/04/06 00:03:14;;;;;;;9.90;4.95;;;;;;;;;;5005962;28;20399;-57
2023/04/06 00:05:40;;;;;;;10.80;5.28;;;;;;;;;;5013319;28;20048;-58
2023/04/06 00:08:06;;;;;;;7.05;4.82;;;;;;;;;;5005567;28;20064;-58
2023/04/06 00:10:33;;;;;;;10.18;5.15;;;;;;;;;;5007463;28;20084;-58
2023/04/06 00:12:59;;;;;;;12.20;4.93;;;;;;;;;;5006580;28;20065;-58
2023/04/06 00:15:26;;;;;;;7.70;4.28;;;;;;;;;;5023480;28;20045;-58
2023/04/06 00:17:52;;;;;;;9.32;5.10;;;;;;;;;;5018528;28;20041;-58
2023/04/06 00:20:19;;;;;;;7.47;4.57;;;;;;;;;;5005777;28;20057;-59
2023/04/06 00:22:45;;;;;;;7.88;5.10;;;;;;;;;;5004971;28;20053;-58
2023/04/06 00:25:11;;;;;;;9.60;5.15;;;;;;;;;;5007005;28;20042;-58
2023/04/06 00:27:38;;;;;;;10.88;5.32;;;;;;;;;;5012817;28;20057;-59
2023/04/06 00:30:05;;;;;;;9.13;5.40;;;;;;;;;;5014149;28;20519;-58
2023/04/06 00:32:31;;;;;;;7.85;4.90;;;;;;;;;;5005469;28;20050;-58
2023/04/06 00:34:58;;;;;;;8.55;5.00;;;;;;;;;;5009374;28;20057;-60
2023/04/06 00:37:24;;;;;;;8.70;5.10;;;;;;;;;;5005274;28;20405;-58
2023/04/06 00:39:51;;;;;;;10.95;5.55;;;;;;;;;;5005130;28;20046;-57
2023/04/06 00:42:25;;;;;;;11.27;5.30;;;;;;;;;;5005349;28;20124;-58
2023/04/06 00:44:51;;;;;;;7.90;4.97;;;;;;;;;;5011963;28;20073;-58
2023/04/06 00:47:17;;;;;;;8.45;4.90;;;;;;;;;;5012919;28;20388;-59
2023/04/06 00:49:44;;;;;;;6.53;4.80;;;;;;;;;;5012803;28;20062;-58
2023/04/06 00:52:10;;;;;;;7.10;4.55;;;;;;;;;;5004552;28;20067;-58
2023/04/06 00:54:36;;;;;;;10.52;5.35;;;;;;;;;;5014922;28;20462;-59
2023/04/06 00:57:02;;;;;;;7.82;5.05;;;;;;;;;;5007809;28;20073;-58
2023/04/06 00:59:29;;;;;;;7.80;4.93;;;;;;;;;;5012816;28;20064;-58
2023/04/06 01:01:55;;;;;;;7.80;5.00;;;;;;;;;;5009562;28;20539;-59
2023/04/06 01:04:22;;;;;;;6.80;4.68;;;;;;;;;;5005355;28;20034;-58
2023/04/06 01:06:49;;;;;;;7.70;4.80;;;;;;;;;;5003780;28;20496;-58
2023/04/06 01:09:15;;;;;;;7.80;4.93;;;;;;;;;;5007114;28;20081;-58
2023/04/06 01:14:19;;;;;;;10.48;4.40;;;;;;;;;;5011787;26;20050;-66
2023/04/06 01:16:45;;;;;;;7.57;5.13;;;;;;;;;;5019451;28;20085;-65
2023/04/06 01:19:12;;;;;;;9.88;5.32;;;;;;;;;;5022600;28;20037;-65
2023/04/06 01:21:39;;;;;;;7.65;4.80;;;;;;;;;;5021463;28;20461;-66
2023/04/06 01:24:05;;;;;;;9.57;5.38;;;;;;;;;;5023566;28;20045;-65
2023/04/06 01:26:32;;;;;;;10.38;4.90;;;;;;;;;;5023920;28;20038;-65
2023/04/06 01:28:59;;;;;;;7.53;4.82;;;;;;;;;;5023692;28;20096;-66
2023/04/06 01:31:26;;;;;;;9.13;5.70;;;;;;;;;;5018814;28;20402;-65
2023/04/06 01:33:52;;;;;;;9.65;5.03;;;;;;;;;;5023515;28;20045;-65
2023/04/06 01:36:18;;;;;;;8.70;4.82;;;;;;;;;;5022590;28;20443;-65
2023/04/06 01:38:45;;;;;;;9.68;5.47;;;;;;;;;;5023420;28;20104;-65
2023/04/06 01:41:11;;;;;;;10.90;5.63;;;;;;;;;;5023790;28;20038;-65
2023/04/06 01:43:37;;;;;;;9.20;5.40;;;;;;;;;;5021794;28;20064;-63
2023/04/06 01:46:03;;;;;;;7.93;4.90;;;;;;;;;;5023979;28;20114;-64
2023/04/06 01:48:29;;;;;;;7.43;4.90;;;;;;;;;;5023808;28;20033;-64
2023/04/06 01:50:56;;;;;;;8.70;5.07;;;;;;;;;;5023627;28;20042;-64
2023/04/06 01:53:22;;;;;;;8.48;5.30;;;;;;;;;;5023738;28;20116;-64
2023/04/06 01:55:48;;;;;;;10.70;5.90;;;;;;;;;;5022233;28;20042;-63
2023/04/06 01:58:14;;;;;;;9.57;5.07;;;;;;;;;;5023943;28;20399;-64
2023/04/06 02:00:40;;;;;;;8.15;5.63;;;;;;;;;;5027564;28;20523;-64
2023/04/06 02:03:07;;;;;;;7.70;5.43;;;;;;;;;;5027661;28;20053;-65
2023/04/06 02:05:37;;;;;;;10.48;5.30;;;;;;;;;;5025497;28;20052;-64
2023/04/06 02:08:05;;;;;;;10.10;5.15;;;;;;;;;;5027668;28;20120;-65
2023/04/06 02:10:32;;;;;;;7.88;5.22;;;;;;;;;;5028099;28;20041;-65
2023/04/06 02:12:58;;;;;;;7.32;5.28;;;;;;;;;;5023216;28;20080;-64
2023/04/06 02:15:24;;;;;;;13.15;5.50;;;;;;;;;;5027920;28;20048;-64
2023/04/06 02:17:51;;;;;;;8.15;4.97;;;;;;;;;;5026954;28;20056;-66
2023/04/06 02:20:17;;;;;;;10.80;5.72;;;;;;;;;;5026579;28;20534;-64
2023/04/06 02:22:43;;;;;;;8.82;5.30;;;;;;;;;;5027031;28;20099;-66
2023/04/06 02:25:10;;;;;;;8.20;5.70;;;;;;;;;;5027229;28;20045;-66
2023/04/06 02:27:36;;;;;;;11.07;5.47;;;;;;;;;;5025413;28;20049;-65
2023/04/06 02:30:03;;;;;;;8.90;5.25;;;;;;;;;;5027630;28;20602;-65
2023/04/06 02:32:29;;;;;;;8.68;5.45;;;;;;;;;;5026946;28;20646;-65
2023/04/06 02:34:55;;;;;;;8.38;5.00;;;;;;;;;;5026807;28;20049;-65
2023/04/06 02:37:23;;;;;;;10.77;5.18;;;;;;;;;;5026830;28;20124;-65
2023/04/06 02:39:50;;;;;;;9.18;5.50;;;;;;;;;;5024643;28;20049;-65
2023/04/06 02:42:16;;;;;;;9.73;5.45;;;;;;;;;;5025637;28;20437;-65
2023/04/06 02:44:43;;;;;;;12.10;5.85;;;;;;;;;;5026236;28;20034;-64
2023/04/06 02:47:09;;;;;;;12.55;5.40;;;;;;;;;;5026540;28;20048;-64
2023/04/06 02:49:35;;;;;;;10.27;5.20;;;;;;;;;;5026066;28;20119;-64
2023/04/06 02:52:02;;;;;;;8.27;5.57;;;;;;;;;;5024402;28;20128;-64
2023/04/06 02:54:28;;;;;;;7.30;5.22;;;;;;;;;;5026976;28;20029;-64
2023/04/06 02:56:54;;;;;;;9.77;5.43;;;;;;;;;;5026747;28;20045;-65
2023/04/06 02:59:21;;;;;;;9.30;5.25;;;;;;;;;;5026501;28;20056;-64
2023/04/06 03:01:47;;;;;;;8.10;5.03;;;;;;;;;;5026035;28;20251;-62
2023/04/06 03:04:13;;;;;;;7.80;5.15;;;;;;;;;;5026690;28;20508;-64
2023/04/06 03:06:39;;;;;;;10.85;5.55;;;;;;;;;;5025328;28;20045;-64
2023/04/06 03:09:06;;;;;;;10.48;5.18;;;;;;;;;;5026453;28;20050;-64
2023/04/06 03:11:32;;;;;;;11.15;5.50;;;;;;;;;;5026516;28;20042;-64
2023/04/06 03:13:59;;;;;;;13.13;5.40;;;;;;;;;;5024775;28;20041;-64
2023/04/06 03:16:25;;;;;;;10.63;6.03;;;;;;;;;;5024830;28;20111;-64
2023/04/06 03:18:51;;;;;;;9.55;5.32;;;;;;;;;;5023502;28;20132;-65
2023/04/06 03:21:19;;;;;;;9.05;6.07;;;;;;;;;;5024613;28;20033;-63
2023/04/06 03:23:45;;;;;;;8.75;5.68;;;;;;;;;;5021349;28;20076;-65
2023/04/06 03:26:11;;;;;;;13.93;6.28;;;;;;;;;;5024984;28;20700;-65
2023/04/06 03:28:37;;;;;;;9.35;5.60;;;;;;;;;;5025092;28;20078;-64
2023/04/06 03:31:04;;;;;;;9.75;5.78;;;;;;;;;;5024781;28;20085;-65
2023/04/06 03:33:30;;;;;;;9.68;5.45;;;;;;;;;;5025212;28;20040;-65
2023/04/06 03:35:56;;;;;;;9.25;6.15;;;;;;;;;;5024317;28;20545;-66
2023/04/06 03:38:22;;;;;;;9.73;5.63;;;;;;;;;;5025388;28;20534;-66
2023/04/06 03:40:48;;;;;;;13.52;5.95;;;;;;;;;;5024673;28;20076;-64
2023/04/06 03:43:15;;;;;;;9.30;5.30;;;;;;;;;;5024261;28;20052;-67
2023/04/06 03:45:41;;;;;;;10.70;6.13;;;;;;;;;;5024567;28;20452;-67
2023/04/06 03:48:07;;;;;;;7.93;5.55;;;;;;;;;;5024793;28;20419;-64
2023/04/06 03:50:33;;;;;;;10.80;6.05;;;;;;;;;;5024482;28;20076;-68
2023/04/06 03:53:02;;;;;;;12.20;6.75;;;;;;;;;;5024340;28;20076;-67
2023/04/06 03:55:29;;;;;;;10.77;6.30;;;;;;;;;;5024563;28;20045;-67
2023/04/06 03:57:55;;;;;;;13.85;6.20;;;;;;;;;;5024731;28;20049;-67
2023/04/06 04:00:21;;;;;;;7.82;5.53;;;;;;;;;;5022342;28;20540;-66
2023/04/06 04:02:47;;;;;;;14.52;5.53;;;;;;;;;;5022754;28;20057;-66
2023/04/06 04:05:13;;;;;;;11.02;6.13;;;;;;;;;;5023782;28;20045;-68
2023/04/06 04:07:40;;;;;;;7.65;5.40;;;;;;;;;;5024116;28;20194;-66
2023/04/06 04:10:06;;;;;;;9.05;6.03;;;;;;;;;;5024255;28;20069;-65
2023/04/06 04:12:32;;;;;;;12.07;5.90;;;;;;;;;;4984954;28;1132975;-67
2023/04/06 04:14:58;;;;;;;12.93;6.10;;;;;;;;;;5024385;28;20054;-68
2023/04/06 04:17:25;;;;;;;10.13;5.70;;;;;;;;;;5025800;28;20041;-65
2023/04/06 04:19:51;;;;;;;15.82;5.75;;;;;;;;;;5024223;28;20045;-66
2023/04/06 04:22:17;;;;;;;11.75;5.95;;;;;;;;;;5024706;28;20124;-65
2023/04/06 04:24:43;;;;;;;9.23;6.07;;;;;;;;;;5024601;28;20034;-65
2023/04/06 04:27:09;;;;;;;12.23;6.47;;;;;;;;;;5024814;28;20498;-66
2023/04/06 04:29:35;;;;;;;9.90;6.03;;;;;;;;;;5024436;28;20041;-63
2023/04/06 04:32:01;;;;;;;9.07;6.05;;;;;;;;;;5024574;28;20052;-66
2023/04/06 04:34:27;;;;;;;9.00;5.43;;;;;;;;;;5025067;28;20049;-65
2023/04/06 04:36:53;;;;;;;8.82;5.75;;;;;;;;;;5022731;28;20503;-64
2023/04/06 04:39:20;;;;;;;10.00;6.57;;;;;;;;;;5024317;28;20041;-65
2023/04/06 04:41:46;;;;;;;10.50;6.85;;;;;;;;;;5024824;28;20049;-65
2023/04/06 04:44:12;;;;;;;11.43;6.50;;;;;;;;;;5024718;28;20049;-65
2023/04/06 04:46:38;;;;;;;9.98;6.28;;;;;;;;;;5024318;28;20140;-65
2023/04/06 04:49:04;;;;;;;10.40;6.53;;;;;;;;;;5024488;28;20033;-67
2023/04/06 04:51:32;;;;;;;12.73;6.22;;;;;;;;;;5023712;28;20824;-65
2023/04/06 04:53:58;;;;;;;10.53;6.73;;;;;;;;;;5024082;28;20116;-67
2023/04/06 04:56:25;;;;;;;11.80;6.82;;;;;;;;;;5023153;28;20095;-68
2023/04/06 04:58:51;;;;;;;12.52;6.75;;;;;;;;;;5025034;28;20176;-62
2023/04/06 05:01:17;;;;;;;13.00;6.70;;;;;;;;;;5024795;28;20037;-62
2023/04/06 05:03:43;;;;;;;11.25;6.43;;;;;;;;;;5024154;28;20494;-61
2023/04/06 05:06:09;;;;;;;11.23;7.07;;;;;;;;;;5024671;28;20042;-61
2023/04/06 05:08:35;;;;;;;12.82;6.97;;;;;;;;;;5027812;28;20079;-61
2023/04/06 05:11:04;;;;;;;12.65;6.97;;;;;;;;;;5024747;28;20034;-62
2023/04/06 05:13:31;;;;;;;13.52;7.15;;;;;;;;;;5024759;28;20125;-64
2023/04/06 05:15:57;;;;;;;15.27;6.57;;;;;;;;;;5025958;28;20045;-62
2023/04/06 05:18:23;;;;;;;16.42;8.15;;;;;;;;;;5025243;28;20155;-62
2023/04/06 05:20:51;;;;;;;12.57;7.45;;;;;;;;;;5024239;28;20041;-63
2023/04/06 05:23:17;;;;;;;18.02;11.02;;;;;;;;;;5025032;28;20049;-63
2023/04/06 05:25:43;;;;;;;33.70;17.80;;;;;;;;;;5024618;28;21611;-66
2023/04/06 05:28:10;;;;;;;23.33;15.77;;;;;;;;;;5025398;28;20038;-66
2023/04/06 05:30:36;;;;;;;19.77;8.60;;;;;;;;;;5024422;28;20042;-66
2023/04/06 05:33:02;;;;;;;12.77;7.35;;;;;;;;;;5024442;28;20438;-67
2023/04/06 05:35:28;;;;;;;15.23;10.10;;;;;;;;;;5027838;28;20046;-66
2023/04/06 05:37:55;;;;;;;40.15;25.58;;;;;;;;;;5029447;28;20049;-67
2023/04/06 05:40:21;;;;;;;21.80;8.68;;;;;;;;;;5029013;28;20107;-67
2023/04/06 05:42:47;;;;;;;16.05;8.32;;;;;;;;;;5028866;28;20046;-70
2023/04/06 05:45:18;;;;;;;14.05;7.22;;;;;;;;;;5029258;28;20040;-70
2023/04/06 05:47:44;;;;;;;11.95;6.97;;;;;;;;;;5029043;28;20046;-70
2023/04/06 05:50:11;;;;;;;18.52;9.85;;;;;;;;;;5028324;28;20038;-68
2023/04/06 05:52:37;;;;;;;13.02;7.35;;;;;;;;;;5028490;28;20048;-66
2023/04/06 05:55:04;;;;;;;16.75;8.38;;;;;;;;;;5028863;28;20053;-69
2023/04/06 05:57:30;;;;;;;15.23;6.88;;;;;;;;;;5028686;28;20418;-69
2023/04/06 05:59:56;;;;;;;15.23;8.07;;;;;;;;;;5028256;28;20510;-69
2023/04/06 06:02:23;;;;;;;13.60;8.45;;;;;;;;;;5028622;28;20483;-69
2023/04/06 06:04:49;;;;;;;15.63;8.45;;;;;;;;;;5021723;28;20402;-69
2023/04/06 06:07:15;;;;;;;13.68;8.07;;;;;;;;;;5027964;28;20475;-69
2023/04/06 06:09:41;;;;;;;22.27;7.50;;;;;;;;;;5028071;28;20073;-69
2023/04/06 06:12:08;;;;;;;12.43;7.40;;;;;;;;;;5027466;28;20111;-69
2023/04/06 06:14:34;;;;;;;16.52;8.43;;;;;;;;;;5027622;28;20052;-69
2023/04/06 06:17:00;;;;;;;13.75;7.00;;;;;;;;;;5027640;28;20038;-69
2023/04/06 06:19:26;;;;;;;14.50;7.78;;;;;;;;;;5027631;28;20042;-67
2023/04/06 06:21:53;;;;;;;12.40;7.50;;;;;;;;;;5027527;28;20120;-70
2023/04/06 06:24:19;;;;;;;16.58;8.05;;;;;;;;;;5027445;28;20128;-69
2023/04/06 06:26:45;;;;;;;17.90;8.40;;;;;;;;;;5027680;28;20045;-69
2023/04/06 06:29:11;;;;;;;13.77;7.95;;;;;;;;;;5027454;28;20476;-69
2023/04/06 06:31:37;;;;;;;18.10;8.98;;;;;;;;;;5027350;28;20042;-68
2023/04/06 06:34:04;;;;;;;13.88;8.88;;;;;;;;;;5027486;28;20034;-69
2023/04/06 06:36:31;;;;;;;16.30;8.70;;;;;;;;;;5026894;28;20045;-69
2023/04/06 06:38:58;;;;;;;14.60;8.02;;;;;;;;;;5025888;28;20510;-69
2023/04/06 06:41:25;;;;;;;15.10;8.85;;;;;;;;;;5027251;28;20049;-69
2023/04/06 06:43:52;;;;;;;15.13;8.50;;;;;;;;;;5027389;28;20111;-69
2023/04/06 06:46:18;;;;;;;16.90;9.25;;;;;;;;;;5026791;28;20052;-69
2023/04/06 06:48:44;;;;;;;13.77;8.18;;;;;;;;;;5027441;28;20045;-69
2023/04/06 06:51:11;;;;;;;15.50;8.52;;;;;;;;;;5026525;28;20087;-69
2023/04/06 06:53:37;;;;;;;17.73;8.85;;;;;;;;;;5026937;28;20076;-68
2023/04/06 06:56:04;;;;;;;16.65;8.90;;;;;;;;;;5027488;28;20047;-69
2023/04/06 06:58:30;;;;;;;15.90;8.73;;;;;;;;;;5026952;28;20495;-69
2023/04/06 07:00:57;;;;;;;15.38;8.38;;;;;;;;;;5027054;28;20052;-69
2023/04/06 07:03:23;;;;;;;17.02;8.35;;;;;;;;;;5027153;28;20411;-69
2023/04/06 07:05:52;;;;;;;14.18;8.88;;;;;;;;;;5026085;28;20048;-70
2023/04/06 07:08:20;;;;;;;17.88;9.30;;;;;;;;;;5027015;28;20475;-69
2023/04/06 07:10:47;;;;;;;14.43;8.60;;;;;;;;;;5026796;28;20148;-69
2023/04/06 07:13:18;;;;;;;16.58;8.85;;;;;;;;;;5026908;28;20053;-69
2023/04/06 07:15:44;;;;;;;13.82;8.50;;;;;;;;;;5026321;28;20060;-70
2023/04/06 07:18:10;;;;;;;18.10;9.50;;;;;;;;;;5026370;28;20541;-69
2023/04/06 07:20:36;;;;;;;15.38;8.82;;;;;;;;;;5026065;28;20511;-69
2023/04/06 07:23:02;;;;;;;13.65;8.70;;;;;;;;;;5026863;28;20411;-69
2023/04/06 07:25:29;;;;;;;14.82;8.23;;;;;;;;;;5026869;28;20120;-69
2023/04/06 07:27:55;;;;;;;16.75;9.75;;;;;;;;;;5026490;28;20184;-70
2023/04/06 07:30:22;;;;;;;14.48;8.93;;;;;;;;;;5026740;28;20077;-69
2023/04/06 07:32:48;;;;;;;16.10;9.32;;;;;;;;;;5026201;28;20053;-70
2023/04/06 07:35:15;;;;;;;17.83;9.82;;;;;;;;;;5025525;28;20605;-69
2023/04/06 07:37:42;;;;;;;16.83;9.05;;;;;;;;;;5026225;28;20046;-69
2023/04/06 07:40:08;;;;;;;14.18;9.10;;;;;;;;;;5026280;28;20037;-69
2023/04/06 07:42:34;;;;;;;13.93;8.63;;;;;;;;;;5026345;28;20491;-69
2023/04/06 07:45:01;;;;;;;17.05;9.15;;;;;;;;;;5026412;28;20122;-69
2023/04/06 07:47:27;;;;;;;16.42;9.93;;;;;;;;;;5026349;28;20526;-65
2023/04/06 07:49:56;;;;;;;15.82;9.20;;;;;;;;;;5025689;28;20091;-69
2023/04/06 07:52:22;;;;;;;16.30;9.77;;;;;;;;;;5026261;28;20048;-70
2023/04/06 07:54:49;;;;;;;16.40;9.43;;;;;;;;;;5025588;28;20048;-69
2023/04/06 07:57:15;;;;;;;15.30;9.10;;;;;;;;;;5025039;28;20092;-69
2023/04/06 07:59:41;;;;;;;15.07;8.70;;;;;;;;;;5025835;28;20042;-69
2023/04/06 08:02:07;;;;;;;23.38;10.43;;;;;;;;;;5025706;28;20041;-69
2023/04/06 08:04:34;;;;;;;18.05;10.50;;;;;;;;;;5025198;28;20509;-69
2023/04/06 08:07:00;;;;;;;19.77;9.65;;;;;;;;;;5025420;28;20235;-69
2023/04/06 08:09:27;;;;;;;19.70;9.75;;;;;;;;;;5026285;28;20471;-69
2023/04/06 08:11:53;;;;;;;16.25;9.43;;;;;;;;;;5025417;28;20061;-69
2023/04/06 08:14:19;;;;;;;18.15;9.07;;;;;;;;;;5025408;28;20041;-66
2023/04/06 08:16:46;;;;;;;16.23;9.85;;;;;;;;;;5025582;28;20046;-66
2023/04/06 08:19:12;;;;;;;16.48;9.38;;;;;;;;;;5024922;28;20037;-66
2023/04/06 08:21:39;;;;;;;17.50;9.30;;;;;;;;;;5025561;28;20053;-66
2023/04/06 08:24:06;;;;;;;20.00;9.10;;;;;;;;;;5025624;28;20041;-66
2023/04/06 08:26:32;;;;;;;17.00;9.82;;;;;;;;;;5025582;28;20065;-67
2023/04/06 08:28:58;;;;;;;19.52;9.32;;;;;;;;;;5024878;28;20049;-67
2023/04/06 08:31:26;;;;;;;16.25;9.60;;;;;;;;;;5025311;28;20140;-66
2023/04/06 08:33:52;;;;;;;16.17;9.85;;;;;;;;;;5025604;28;20049;-66
2023/04/06 08:36:22;;;;;;;17.33;9.52;;;;;;;;;;5024657;28;20041;-66
2023/04/06 08:38:49;;;;;;;16.40;9.20;;;;;;;;;;5025042;28;20049;-66
2023/04/06 08:41:17;;;;;;;16.33;9.85;;;;;;;;;;5025026;28;20042;-66
2023/04/06 08:43:45;;;;;;;16.35;9.63;;;;;;;;;;5025111;28;20056;-66
2023/04/06 08:46:12;;;;;;;15.27;8.93;;;;;;;;;;5025236;28;20042;-66
2023/04/06 08:48:39;;;;;;;19.20;10.48;;;;;;;;;;5024413;28;20045;-66
2023/04/06 08:51:06;;;;;;;23.88;10.07;;;;;;;;;;5024666;28;20041;-66
2023/04/06 08:53:32;;;;;;;18.98;10.00;;;;;;;;;;5025141;28;20044;-67
2023/04/06 08:55:58;;;;;;;17.85;10.40;;;;;;;;;;5024613;28;20049;-66
2023/04/06 08:58:26;;;;;;;17.75;9.57;;;;;;;;;;5025471;28;20576;-66
2023/04/06 09:00:52;;;;;;;15.02;9.90;;;;;;;;;;5025413;28;20041;-66
2023/04/06 09:03:19;;;;;;;15.82;9.90;;;;;;;;;;5024792;28;20045;-67
2023/04/06 09:05:46;;;;;;;17.63;10.07;;;;;;;;;;5023470;28;20406;-66
2023/04/06 09:08:12;;;;;;;18.92;10.65;;;;;;;;;;5024543;28;20071;-67
2023/04/06 09:10:42;;;;;;;17.35;10.07;;;;;;;;;;5024598;28;20037;-66
2023/04/06 09:13:09;;;;;;;24.63;11.25;;;;;;;;;;5024659;28;20094;-66
2023/04/06 09:15:35;;;;;;;16.67;10.27;;;;;;;;;;5024814;28;20049;-62
2023/04/06 09:18:02;;;;;;;18.08;11.15;;;;;;;;;;5024726;28;20045;-67
2023/04/06 09:20:28;;;;;;;19.58;10.82;;;;;;;;;;5024273;28;20095;-66
2023/04/06 09:22:54;;;;;;;16.98;10.45;;;;;;;;;;5024344;28;20053;-66
2023/04/06 09:25:22;;;;;;;21.20;10.82;;;;;;;;;;5024603;28;20534;-66
2023/04/06 09:27:49;;;;;;;18.83;10.70;;;;;;;;;;5024576;28;20050;-66
2023/04/06 09:30:16;;;;;;;24.75;11.80;;;;;;;;;;5024960;28;20486;-66
2023/04/06 09:32:49;;;;;;;19.45;10.95;;;;;;;;;;5024374;28;20042;-66
2023/04/06 09:35:16;;;;;;;21.48;11.52;;;;;;;;;;5023946;28;20075;-66
2023/04/06 09:37:43;;;;;;;20.45;11.90;;;;;;;;;;5024437;28;20044;-66
2023/04/06 09:40:10;;;;;;;23.08;11.60;;;;;;;;;;5024228;28;20385;-66
2023/04/06 09:42:36;;;;;;;20.27;11.45;;;;;;;;;;5024517;28;20042;-66
2023/04/06 09:45:03;;;;;;;25.45;12.30;;;;;;;;;;5024420;28;20117;-66
2023/04/06 09:47:30;;;;;;;19.48;11.48;;;;;;;;;;5024466;28;20033;-66
2023/04/06 09:49:57;;;;;;;21.77;12.20;;;;;;;;;;5023870;28;20037;-66
2023/04/06 09:52:26;;;;;;;21.15;11.25;;;;;;;;;;5024186;28;20037;-67
2023/04/06 09:54:55;;;;;;;21.23;11.70;;;;;;;;;;5024759;28;20050;-66
2023/04/06 09:57:25;;;;;;;21.58;11.98;;;;;;;;;;5023838;28;20057;-65
2023/04/06 10:00:07;;;;;;;24.08;12.60;;;;;;;;;;5024482;28;20739;-65
2023/04/06 10:02:39;;;;;;;22.80;11.90;;;;;;;;;;5024078;28;20049;-65
2023/04/06 10:05:09;;;;;;;26.65;12.95;;;;;;;;;;5023747;28;20643;-66
2023/04/06 10:07:36;;;;;;;23.35;12.48;;;;;;;;;;5023590;28;20403;-66
2023/04/06 10:10:03;;;;;;;22.05;12.35;;;;;;;;;;5024247;28;20047;-66
2023/04/06 10:12:29;;;;;;;22.60;12.40;;;;;;;;;;5023628;28;20499;-66
2023/04/06 10:14:56;;;;;;;26.70;12.43;;;;;;;;;;5024665;28;20110;-66
2023/04/06 10:17:24;;;;;;;22.83;12.13;;;;;;;;;;5024495;28;20047;-66
2023/04/06 10:20:04;;;;;;;25.80;13.17;;;;;;;;;;5024115;28;20506;-66
2023/04/06 10:22:39;;;;;;;30.98;13.30;;;;;;;;;;5027026;28;20630;-67
2023/04/06 10:25:06;;;;;;;27.88;13.30;;;;;;;;;;5027823;28;20064;-67
2023/04/06 10:27:33;;;;;;;28.73;13.35;;;;;;;;;;5027601;28;20064;-67
2023/04/06 10:30:06;;;;;;;26.55;13.98;;;;;;;;;;5027518;28;20042;-68
2023/04/06 10:32:35;;;;;;;26.25;13.90;;;;;;;;;;5027723;28;20491;-68
2023/04/06 10:35:09;;;;;;;25.77;13.45;;;;;;;;;;5026722;28;20049;-67
2023/04/06 10:38:02;;;;;;;30.08;14.90;;;;;;;;;;5027296;28;20493;-67
2023/04/06 10:40:29;;;;;;;28.38;14.07;;;;;;;;;;5027496;28;20163;-67
2023/04/06 10:42:56;;;;;;;30.13;15.40;;;;;;;;;;5027561;28;20056;-67
2023/04/06 10:45:25;;;;;;;26.63;15.43;;;;;;;;;;5027919;28;20045;-67
2023/04/06 10:47:54;;;;;;;33.40;15.13;;;;;;;;;;5027213;28;20040;-67
2023/04/06 10:50:21;;;;;;;29.65;15.98;;;;;;;;;;5026499;28;20049;-67
2023/04/06 10:52:47;;;;;;;27.08;15.45;;;;;;;;;;5026866;28;20239;-66
2023/04/06 10:55:15;;;;;;;28.88;15.35;;;;;;;;;;5027409;28;20049;-66
2023/04/06 10:57:41;;;;;;;35.38;17.50;;;;;;;;;;5027299;28;20083;-67
2023/04/06 11:00:08;;;;;;;30.65;16.60;;;;;;;;;;5027151;28;20140;-65
2023/04/06 11:02:37;;;;;;;32.58;16.60;;;;;;;;;;5026816;28;20064;-67
2023/04/06 11:05:04;;;;;;;34.28;17.02;;;;;;;;;;5026342;28;20042;-67
2023/04/06 11:07:30;;;;;;;35.92;17.38;;;;;;;;;;5026555;28;20403;-66
2023/04/06 11:09:57;;;;;;;37.42;18.02;;;;;;;;;;5027294;28;20045;-66
2023/04/06 11:12:23;;;;;;;36.10;18.92;;;;;;;;;;5026901;28;20472;-65
2023/04/06 11:14:54;;;;;;;35.75;17.90;;;;;;;;;;5026632;28;20079;-68
2023/04/06 11:17:26;;;;;;;35.95;18.38;;;;;;;;;;5026600;28;20507;-67
2023/04/06 11:19:52;;;;;;;32.08;17.65;;;;;;;;;;5026368;28;20569;-67
2023/04/06 11:22:19;;;;;;;34.55;17.63;;;;;;;;;;5026780;28;20048;-67
2023/04/06 11:24:45;;;;;;;34.88;18.73;;;;;;;;;;5026539;28;20056;-67
2023/04/06 11:27:11;;;;;;;37.38;18.50;;;;;;;;;;5026573;28;20100;-70
2023/04/06 11:29:38;;;;;;;39.70;19.38;;;;;;;;;;5026402;28;20037;-66
2023/04/06 11:32:05;;;;;;;37.30;18.58;;;;;;;;;;5025416;28;20045;-69
2023/04/06 11:34:35;;;;;;;35.77;18.37;;;;;;;;;;5025557;28;20033;-68
2023/04/06 11:37:02;;;;;;;32.90;18.00;;;;;;;;;;5026181;28;20618;-67
2023/04/06 11:39:29;;;;;;;33.20;18.13;;;;;;;;;;5026661;28;20042;-67
2023/04/06 11:41:58;;;;;;;32.40;18.10;;;;;;;;;;5026569;28;20057;-67
2023/04/06 11:44:24;;;;;;;;;;;;;;;;;;5027628;28;20116;-69
2023/04/06 11:46:57;;;;;;;35.72;18.52;;;;;;;;;;5025810;28;19921;-67
2023/04/06 11:49:28;;;;;;;33.00;16.98;;;;;;;;;;5026106;28;20045;-68
2023/04/06 11:51:54;;;;;;;33.80;16.83;;;;;;;;;;5025939;28;20050;-68
2023/04/06 11:54:31;;;;;;;36.92;18.50;;;;;;;;;;5025700;28;20049;-68
2023/04/06 11:56:57;;;;;;;35.78;17.70;;;;;;;;;;5025716;28;20433;-68
2023/04/06 11:59:24;;;;;;;34.13;18.42;;;;;;;;;;5026394;28;20045;-69
2023/04/06 12:01:50;;;;;;;38.17;18.27;;;;;;;;;;5025923;28;20041;-68
2023/04/06 12:04:17;;;;;;;34.90;17.50;;;;;;;;;;5025488;28;20052;-68
2023/04/06 12:06:43;;;;;;;35.72;16.98;;;;;;;;;;5023808;28;20053;-68
2023/04/06 12:09:09;;;;;;;32.40;17.40;;;;;;;;;;5025721;28;20042;-67
2023/04/06 12:11:36;;;;;;;32.00;17.35;;;;;;;;;;5025582;28;20048;-68
2023/04/06 12:14:04;;;;;;;32.55;19.38;;;;;;;;;;5024283;28;20084;-67
2023/04/06 12:16:30;;;;;;;;;;;;;;;;;;5026228;28;20049;-67
2023/04/06 12:18:56;;;;;;;31.25;16.67;;;;;;;;;;5025091;28;19929;-68
2023/04/06 12:21:23;;;;;;;32.65;15.98;;;;;;;;;;5026148;28;20527;-68
2023/04/06 12:23:49;;;;;;;30.27;16.77;;;;;;;;;;5025307;28;20111;-67
2023/04/06 12:26:15;;;;;;;33.45;17.30;;;;;;;;;;5024985;28;20052;-67
2023/04/06 12:28:41;;;;;;;33.25;17.65;;;;;;;;;;5025049;28;20049;-66
2023/04/06 12:31:08;;;;;;;31.83;17.30;;;;;;;;;;5025521;28;20048;-66
2023/04/06 12:33:34;;;;;;;37.10;17.30;;;;;;;;;;5024883;28;20056;-67
2023/04/06 12:36:00;;;;;;;32.10;17.17;;;;;;;;;;5025529;28;20044;-67
2023/04/06 12:38:26;;;;;;;32.80;17.15;;;;;;;;;;5025277;28;20045;-65
2023/04/06 12:40:53;;;;;;;31.98;16.23;;;;;;;;;;5025203;28;20041;-66
2023/04/06 12:43:19;;;;;;;32.17;16.15;;;;;;;;;;5024487;28;20091;-66
2023/04/06 12:45:45;;;;;;;29.25;15.88;;;;;;;;;;5024196;28;20042;-67
2023/04/06 12:48:12;;;;;;;35.70;16.33;;;;;;;;;;5022108;28;20274;-67
2023/04/06 12:50:38;;;;;;;31.38;16.10;;;;;;;;;;5024116;28;20483;-65
2023/04/06 12:53:04;;;;;;;36.40;17.33;;;;;;;;;;5023800;28;20037;-67
2023/04/06 12:55:33;;;;;;;32.70;16.20;;;;;;;;;;5029276;28;20064;-66
2023/04/06 12:58:00;;;;;;;30.00;15.85;;;;;;;;;;5025542;28;20187;-67
2023/04/06 13:00:26;;;;;;;29.20;15.05;;;;;;;;;;5025936;28;20045;-66
2023/04/06 13:02:53;;;;;;;29.38;15.07;;;;;;;;;;5019477;28;20041;-66
2023/04/06 13:05:19;;;;;;;30.35;15.38;;;;;;;;;;5021753;28;20040;-66
2023/04/06 13:07:46;;;;;;;33.17;15.10;;;;;;;;;;5020976;28;20120;-66
2023/04/06 13:10:12;;;;;;;30.83;14.77;;;;;;;;;;5023770;28;20056;-66
2023/04/06 13:12:39;;;;;;;31.45;15.85;;;;;;;;;;5023370;28;20153;-66
2023/04/06 13:15:05;;;;;;;28.83;14.35;;;;;;;;;;5023410;28;20056;-67
2023/04/06 13:17:31;;;;;;;29.77;15.00;;;;;;;;;;5023442;28;20048;-66
2023/04/06 13:19:58;;;;;;;27.63;14.18;;;;;;;;;;5023184;28;20041;-64
2023/04/06 13:22:24;;;;;;;29.60;14.45;;;;;;;;;;5023938;28;20049;-66
2023/04/06 13:24:50;;;;;;;28.95;14.25;;;;;;;;;;5015703;28;20045;-66
2023/04/06 13:27:16;;;;;;;27.52;12.98;;;;;;;;;;5023175;28;20041;-65
2023/04/06 13:29:42;;;;;;;24.17;12.77;;;;;;;;;;5023345;28;20033;-66
2023/04/06 13:32:10;;;;;;;23.40;13.18;;;;;;;;;;5023760;28;20041;-68
2023/04/06 13:34:36;;;;;;;25.38;12.85;;;;;;;;;;5013914;28;20049;-68
2023/04/06 13:37:02;;;;;;;23.95;12.88;;;;;;;;;;5016471;28;20064;-67
2023/04/06 13:39:28;;;;;;;25.17;12.93;;;;;;;;;;5023061;28;20041;-66
2023/04/06 13:42:02;;;;;;;23.63;12.25;;;;;;;;;;5024255;28;20045;-68
2023/04/06 13:44:32;;;;;;;25.75;11.65;;;;;;;;;;5023895;28;20038;-67
2023/04/06 13:46:59;;;;;;;25.00;11.63;;;;;;;;;;5021864;28;20103;-68
2023/04/06 13:49:26;;;;;;;23.33;11.85;;;;;;;;;;5023431;28;20057;-68
2023/04/06 13:51:52;;;;;;;23.55;10.93;;;;;;;;;;5023728;28;20049;-68
2023/04/06 13:54:18;;;;;;;19.95;10.23;;;;;;;;;;5024107;28;20041;-68
2023/04/06 13:56:45;;;;;;;18.02;9.95;;;;;;;;;;5027778;28;20037;-68
2023/04/06 13:59:11;;;;;;;19.02;9.55;;;;;;;;;;5027842;28;20046;-67
2023/04/06 14:01:37;;;;;;;20.23;10.30;;;;;;;;;;5027404;28;20033;-66
2023/04/06 14:04:03;;;;;;;24.40;9.73;;;;;;;;;;5024597;28;20057;-67
2023/04/06 14:06:30;;;;;;;16.63;9.90;;;;;;;;;;5026586;28;20465;-68
2023/04/06 14:08:56;;;;;;;19.35;10.52;;;;;;;;;;5026607;28;20045;-70
2023/04/06 14:11:23;;;;;;;18.65;10.38;;;;;;;;;;5027711;28;20191;-69
2023/04/06 14:13:49;;;;;;;20.65;10.90;;;;;;;;;;5026618;28;20129;-68
2023/04/06 14:16:19;;;;;;;20.92;10.98;;;;;;;;;;5022610;28;20068;-69
2023/04/06 14:18:45;;;;;;;17.38;9.30;;;;;;;;;;5026415;28;20046;-71
2023/04/06 14:21:11;;;;;;;20.80;10.77;;;;;;;;;;5026862;28;20041;-72
2023/04/06 14:23:38;;;;;;;19.83;11.07;;;;;;;;;;5027542;28;20102;-67
2023/04/06 14:26:06;;;;;;;21.00;10.57;;;;;;;;;;5026964;28;20100;-69
2023/04/06 14:28:33;;;;;;;19.95;10.55;;;;;;;;;;5027196;28;20091;-69